createdAt,value
2019-05-06T00:00:19.950Z,4.85
2019-05-06T00:02:46.715Z,4.65
2019-05-06T00:05:14.380Z,4.55
2019-05-06T00:07:44.461Z,4.51
2019-05-06T00:10:25.510Z,4.32
2019-05-06T00:12:53.583Z,4.36
2019-05-06T00:15:23.447Z,4.23
2019-05-06T00:17:50.361Z,4.21
2019-05-06T00:20:17.151Z,4.23
2019-05-06T00:22:43.956Z,4.24
2019-05-06T00:25:16.901Z,4.08
2019-05-06T00:28:01.326Z,3.91
2019-05-06T00:30:27.989Z,3.81
2019-05-06T00:32:54.562Z,3.76
2019-05-06T00:35:23.364Z,3.81
2019-05-06T00:37:49.952Z,3.67
2019-05-06T00:40:27.871Z,3.55
2019-05-06T00:42:58.441Z,3.43
2019-05-06T00:45:25.122Z,3.43
2019-05-06T00:47:53.579Z,3.38
2019-05-06T00:50:20.375Z,3.41
2019-05-06T00:52:47.825Z,3.38
2019-05-06T00:55:14.916Z,3.35
2019-05-06T00:57:44.735Z,3.33
2019-05-06T01:00:17.259Z,3.23
2019-05-06T01:02:44.050Z,3.14
2019-05-06T01:05:13.410Z,3.09
2019-05-06T01:07:40.421Z,3.08
2019-05-06T01:10:07.599Z,3.27
2019-05-06T01:15:14.514Z,3.07
2019-05-06T01:17:41.206Z,2.82
2019-05-06T01:20:08.722Z,2.69
2019-05-06T01:22:35.618Z,2.53
2019-05-06T01:25:03.974Z,2.50
2019-05-06T01:27:30.959Z,2.37
2019-05-06T01:29:58.043Z,2.26
2019-05-06T01:32:24.739Z,2.26
2019-05-06T01:34:53.686Z,2.30
2019-05-06T01:37:20.210Z,2.29
2019-05-06T01:39:57.615Z,2.27
2019-05-06T01:42:46.928Z,2.26
2019-05-06T01:45:14.197Z,2.30
2019-05-06T01:47:41.036Z,2.32
2019-05-06T01:50:08.218Z,2.34
2019-05-06T01:52:35.014Z,2.21
2019-05-06T01:55:01.696Z,2.16
2019-05-06T01:57:28.664Z,2.17
2019-05-06T01:59:55.342Z,2.11
2019-05-06T02:02:24.480Z,2.05
2019-05-06T02:07:24.137Z,2.20
2019-05-06T02:09:50.883Z,2.37
2019-05-06T02:12:17.526Z,2.40
2019-05-06T02:14:44.202Z,2.63
2019-05-06T02:17:10.808Z,2.61
2019-05-06T02:19:38.082Z,2.61
2019-05-06T02:22:20.454Z,2.61
2019-05-06T02:24:53.470Z,2.63
2019-05-06T02:27:19.981Z,2.63
2019-05-06T02:29:54.335Z,2.64
2019-05-06T02:32:31.993Z,2.57
2019-05-06T02:35:18.198Z,2.42
2019-05-06T02:37:46.478Z,2.33
2019-05-06T02:40:24.747Z,2.16
2019-05-06T02:42:54.583Z,2.12
2019-05-06T02:45:20.241Z,2.04
2019-05-06T02:48:06.719Z,1.97
2019-05-06T02:50:53.913Z,1.89
2019-05-06T02:53:23.718Z,1.84
2019-05-06T02:55:52.850Z,1.88
2019-05-06T02:58:19.255Z,1.99
2019-05-06T03:00:46.473Z,2.11
2019-05-06T03:03:14.277Z,2.25
2019-05-06T03:05:43.873Z,2.35
2019-05-06T03:08:13.200Z,2.41
2019-05-06T03:10:38.499Z,2.59
2019-05-06T03:13:05.198Z,2.67
2019-05-06T03:15:34.303Z,2.70
2019-05-06T03:18:03.003Z,2.78
2019-05-06T03:20:49.569Z,2.78
2019-05-06T03:23:18.011Z,2.92
2019-05-06T03:25:44.880Z,3.01
2019-05-06T03:28:13.281Z,3.20
2019-05-06T03:30:45.235Z,3.18
2019-05-06T03:33:37.037Z,3.20
2019-05-06T03:35:56.371Z,3.22
2019-05-06T03:38:05.928Z,3.20
2019-05-06T03:40:36.111Z,3.22
2019-05-06T03:43:02.764Z,3.23
2019-05-06T03:45:38.183Z,3.33
2019-05-06T03:48:09.253Z,3.33
2019-05-06T03:50:36.241Z,3.41
2019-05-06T03:53:03.395Z,3.38
2019-05-06T03:55:33.978Z,3.33
2019-05-06T03:58:03.850Z,3.56
2019-05-06T04:00:33.146Z,3.65
2019-05-06T04:02:58.636Z,3.73
2019-05-06T04:05:25.610Z,3.94
2019-05-06T04:07:53.253Z,3.93
2019-05-06T04:10:22.677Z,3.97
2019-05-06T04:12:53.087Z,4.12
2019-05-06T04:15:19.176Z,4.16
2019-05-06T04:17:53.871Z,4.11
2019-05-06T04:20:30.027Z,4.25
2019-05-06T04:23:06.160Z,4.32
2019-05-06T04:25:52.792Z,4.30
2019-05-06T04:28:23.818Z,4.36
2019-05-06T04:30:50.217Z,4.43
2019-05-06T04:33:17.806Z,4.47
2019-05-06T04:35:44.897Z,4.59
2019-05-06T04:38:13.893Z,4.74
2019-05-06T04:40:43.685Z,4.76
2019-05-06T04:43:13.057Z,4.87
2019-05-06T04:45:38.246Z,4.76
2019-05-06T04:48:05.125Z,4.67
2019-05-06T04:50:33.150Z,4.99
2019-05-06T04:53:04.819Z,5.04
2019-05-06T04:55:33.718Z,5.17
2019-05-06T04:58:04.036Z,5.17
2019-05-06T05:00:53.232Z,5.38
2019-05-06T05:03:22.772Z,5.45
2019-05-06T05:05:49.031Z,5.47
2019-05-06T05:08:15.845Z,5.75
2019-05-06T05:10:52.828Z,5.70
2019-05-06T05:13:29.296Z,5.69
2019-05-06T05:16:12.823Z,5.71
2019-05-06T05:18:59.400Z,5.89
2019-05-06T05:21:26.401Z,6.16
2019-05-06T05:23:53.666Z,6.13
2019-05-06T05:26:22.407Z,6.26
2019-05-06T05:28:49.339Z,6.26
2019-05-06T05:31:16.139Z,6.05
2019-05-06T05:33:42.903Z,6.31
2019-05-06T05:36:09.697Z,6.49
2019-05-06T05:38:36.481Z,6.42
2019-05-06T05:41:03.276Z,6.44
2019-05-06T05:43:42.744Z,6.32
2019-05-06T05:46:09.826Z,6.22
2019-05-06T05:48:58.915Z,6.20
2019-05-06T05:51:25.694Z,6.14
2019-05-06T05:53:52.914Z,6.47
2019-05-06T05:56:19.662Z,6.51
2019-05-06T05:58:46.446Z,6.75
2019-05-06T06:01:13.430Z,6.85
2019-05-06T06:03:42.187Z,7.03
2019-05-06T06:06:09.313Z,7.03
2019-05-06T06:08:37.011Z,6.92
2019-05-06T06:11:12.720Z,6.92
2019-05-06T06:13:39.494Z,6.99
2019-05-06T06:16:23.223Z,7.16
2019-05-06T06:19:12.792Z,6.97
2019-05-06T06:21:45.094Z,6.96
2019-05-06T06:24:22.556Z,7.11
2019-05-06T06:26:49.527Z,7.04
2019-05-06T06:29:16.667Z,7.48
2019-05-06T06:31:48.644Z,7.69
2019-05-06T06:34:23.976Z,7.28
2019-05-06T06:37:13.366Z,7.40
2019-05-06T06:39:42.670Z,7.59
2019-05-06T06:42:09.562Z,7.95
2019-05-06T06:44:36.751Z,8.05
2019-05-06T06:47:03.837Z,8.27
2019-05-06T06:49:32.741Z,7.81
2019-05-06T06:51:59.484Z,7.99
2019-05-06T06:54:26.299Z,8.23
2019-05-06T06:57:06.166Z,7.63
2019-05-06T06:59:36.679Z,8.03
2019-05-06T07:02:22.975Z,8.49
2019-05-06T07:05:02.403Z,8.59
2019-05-06T07:07:41.207Z,8.60
2019-05-06T07:09:58.943Z,9.91
2019-05-06T07:12:25.765Z,9.00
2019-05-06T07:14:59.246Z,9.50
2019-05-06T07:17:25.923Z,9.35
2019-05-06T07:19:55.523Z,9.68
2019-05-06T07:24:57.355Z,9.38
2019-05-06T07:27:26.049Z,10.01
2019-05-06T07:29:52.706Z,9.90
2019-05-06T07:32:23.027Z,10.85
2019-05-06T07:34:50.031Z,10.46
2019-05-06T07:37:17.682Z,10.54
2019-05-06T07:39:44.433Z,10.77
2019-05-06T07:42:19.663Z,11.25
2019-05-06T07:44:55.305Z,11.95
2019-05-06T07:47:42.647Z,11.13
2019-05-06T07:50:09.655Z,11.10
2019-05-06T07:52:36.491Z,11.32
2019-05-06T07:55:03.702Z,10.70
2019-05-06T07:57:32.810Z,10.59
2019-05-06T07:59:59.201Z,10.79
2019-05-06T08:02:25.950Z,10.27
2019-05-06T08:04:53.218Z,10.69
2019-05-06T08:07:22.155Z,11.70
2019-05-06T08:09:48.650Z,11.69
2019-05-06T08:12:15.440Z,11.99
2019-05-06T08:14:43.258Z,12.24
2019-05-06T08:17:16.018Z,10.84
2019-05-06T08:19:42.783Z,10.81
2019-05-06T08:22:13.566Z,12.32
2019-05-06T08:24:42.272Z,14.42
2019-05-06T08:27:09.305Z,13.01
2019-05-06T08:29:36.061Z,14.63
2019-05-06T08:32:03.071Z,13.32
2019-05-06T08:34:29.755Z,13.09
2019-05-06T08:37:03.275Z,14.01
2019-05-06T08:39:32.162Z,12.62
2019-05-06T08:41:58.789Z,12.85
2019-05-06T08:44:25.576Z,12.58
2019-05-06T08:46:53.310Z,12.97
2019-05-06T08:49:22.426Z,13.07
2019-05-06T08:52:02.896Z,13.01
2019-05-06T08:54:36.348Z,12.78
2019-05-06T08:57:03.160Z,13.58
2019-05-06T08:59:32.090Z,13.47
2019-05-06T09:01:59.394Z,12.69
2019-05-06T09:04:27.241Z,12.02
2019-05-06T09:06:54.291Z,11.26
2019-05-06T09:09:22.339Z,11.11
2019-05-06T09:11:49.515Z,11.88
2019-05-06T09:14:16.210Z,12.49
2019-05-06T09:16:44.083Z,11.77
2019-05-06T09:19:12.855Z,11.85
2019-05-06T09:21:43.339Z,14.51
2019-05-06T09:24:08.466Z,15.79
2019-05-06T09:26:48.505Z,13.14
2019-05-06T09:29:24.347Z,12.80
2019-05-06T09:31:53.981Z,13.96
2019-05-06T09:34:45.279Z,14.61
2019-05-06T09:37:32.507Z,16.16
2019-05-06T09:39:59.543Z,14.24
2019-05-06T09:42:26.310Z,12.55
2019-05-06T09:44:54.059Z,12.01
2019-05-06T09:47:46.830Z,12.25
2019-05-06T09:50:16.353Z,13.06
2019-05-06T09:52:43.010Z,12.93
2019-05-06T09:55:23.541Z,12.58
2019-05-06T09:58:03.530Z,13.83
2019-05-06T10:00:32.941Z,13.05
2019-05-06T10:02:59.952Z,12.15
2019-05-06T10:05:26.746Z,12.03
2019-05-06T10:07:53.912Z,12.67
2019-05-06T10:10:22.337Z,12.84
2019-05-06T10:12:49.431Z,13.15
2019-05-06T10:15:16.716Z,12.19
2019-05-06T10:17:43.520Z,14.37
2019-05-06T10:20:12.437Z,15.19
2019-05-06T10:22:38.884Z,15.79
2019-05-06T10:25:06.192Z,17.00
2019-05-06T10:27:35.008Z,19.84
2019-05-06T10:30:05.004Z,18.62
2019-05-06T10:32:38.802Z,14.41
2019-05-06T10:35:07.416Z,12.57
2019-05-06T10:38:06.703Z,13.18
2019-05-06T10:40:56.106Z,14.66
2019-05-06T10:43:48.016Z,17.32
2019-05-06T10:46:14.808Z,15.12
2019-05-06T10:48:42.407Z,14.54
2019-05-06T10:51:17.108Z,13.49
2019-05-06T10:53:45.063Z,13.27
2019-05-06T10:56:32.144Z,14.31
2019-05-06T10:58:58.990Z,14.83
2019-05-06T11:01:33.109Z,15.44
2019-05-06T11:04:00.087Z,16.81
2019-05-06T11:06:26.776Z,19.29
2019-05-06T11:08:55.179Z,19.43
2019-05-06T11:11:32.833Z,18.76
2019-05-06T11:13:52.220Z,16.23
2019-05-06T11:16:23.654Z,15.54
2019-05-06T11:18:50.507Z,14.27
2019-05-06T11:21:17.280Z,14.74
2019-05-06T11:23:44.067Z,15.34
2019-05-06T11:26:13.007Z,14.43
2019-05-06T11:28:48.926Z,14.62
2019-05-06T11:31:37.240Z,16.52
2019-05-06T11:34:12.638Z,16.23
2019-05-06T11:36:46.207Z,14.84
2019-05-06T11:39:14.200Z,13.90
2019-05-06T11:41:56.507Z,12.98
2019-05-06T11:44:09.706Z,12.84
2019-05-06T11:46:36.414Z,12.39
2019-05-06T11:49:03.287Z,11.80
2019-05-06T11:51:32.893Z,12.23
2019-05-06T11:54:02.709Z,11.98
2019-05-06T11:56:32.707Z,12.89
2019-05-06T11:59:02.283Z,12.71
2019-05-06T12:01:48.110Z,12.78
2019-05-06T12:04:14.765Z,15.10
2019-05-06T12:06:42.379Z,19.18
2019-05-06T12:09:13.223Z,19.46
2019-05-06T12:11:38.111Z,17.39
2019-05-06T12:14:05.429Z,16.46
2019-05-06T12:16:33.115Z,14.92
2019-05-06T12:19:02.630Z,13.78
2019-05-06T12:21:29.085Z,13.82
2019-05-06T12:23:55.754Z,14.58
2019-05-06T12:26:22.455Z,13.82
2019-05-06T12:28:49.038Z,12.82
2019-05-06T12:31:15.836Z,13.29
2019-05-06T12:33:49.712Z,12.84
2019-05-06T12:36:23.539Z,13.55
2019-05-06T12:39:10.344Z,12.99
2019-05-06T12:41:43.205Z,13.59
2019-05-06T12:44:12.924Z,14.20
2019-05-06T12:46:43.121Z,16.24
2019-05-06T12:49:12.564Z,15.93
2019-05-06T12:51:38.597Z,14.32
2019-05-06T12:54:05.375Z,14.31
2019-05-06T12:56:32.197Z,14.45
2019-05-06T12:58:58.862Z,14.38
2019-05-06T13:01:25.600Z,13.95
2019-05-06T13:03:52.664Z,13.92
2019-05-06T13:06:19.644Z,13.80
2019-05-06T13:08:58.627Z,13.90
2019-05-06T13:11:14.927Z,14.15
2019-05-06T13:13:53.987Z,14.24
2019-05-06T13:16:12.597Z,13.93
2019-05-06T13:18:39.722Z,13.48
2019-05-06T13:21:06.717Z,12.83
2019-05-06T13:23:46.551Z,12.26
2019-05-06T13:26:13.340Z,12.40
2019-05-06T13:28:44.099Z,12.11
2019-05-06T13:31:19.466Z,12.15
2019-05-06T13:33:47.851Z,11.54
2019-05-06T13:36:14.707Z,10.90
2019-05-06T13:38:42.673Z,10.70
2019-05-06T13:41:09.698Z,10.45
2019-05-06T13:43:46.768Z,10.38
2019-05-06T13:46:17.338Z,10.58
2019-05-06T13:48:53.206Z,10.84
2019-05-06T13:51:23.585Z,10.97
2019-05-06T13:53:52.742Z,11.44
2019-05-06T13:56:19.081Z,11.74
2019-05-06T13:58:45.830Z,12.16
2019-05-06T14:01:16.083Z,12.10
2019-05-06T14:03:43.032Z,12.11
2019-05-06T14:06:12.161Z,12.45
2019-05-06T14:08:38.513Z,12.22
2019-05-06T14:11:05.221Z,12.44
2019-05-06T14:13:33.007Z,12.47
2019-05-06T14:15:59.697Z,12.63
2019-05-06T14:18:26.488Z,12.96
2019-05-06T14:20:53.317Z,12.74
2019-05-06T14:23:22.111Z,12.85
2019-05-06T14:26:12.599Z,12.74
2019-05-06T14:28:45.831Z,13.34
2019-05-06T14:31:25.403Z,13.35
2019-05-06T14:33:52.242Z,13.68
2019-05-06T14:36:19.240Z,14.19
2019-05-06T14:38:45.942Z,13.60
2019-05-06T14:41:16.545Z,13.67
2019-05-06T14:43:43.349Z,14.37
2019-05-06T14:46:10.961Z,15.10
2019-05-06T14:48:37.666Z,14.84
2019-05-06T14:51:04.423Z,16.29
2019-05-06T14:53:33.014Z,15.53
2019-05-06T14:56:03.607Z,17.87
2019-05-06T14:58:32.110Z,18.64
2019-05-06T15:00:58.897Z,18.14
2019-05-06T15:03:25.701Z,18.27
2019-05-06T15:05:52.368Z,18.16
2019-05-06T15:08:19.162Z,14.76
2019-05-06T15:10:45.835Z,14.07
2019-05-06T15:13:12.753Z,13.75
2019-05-06T15:15:39.559Z,13.24
2019-05-06T15:18:06.463Z,13.33
2019-05-06T15:20:34.252Z,13.47
2019-05-06T15:23:04.346Z,13.16
2019-05-06T15:25:32.529Z,13.12
2019-05-06T15:27:59.157Z,13.28
2019-05-06T15:30:34.222Z,13.05
2019-05-06T15:33:02.526Z,12.84
2019-05-06T15:35:47.436Z,12.51
2019-05-06T15:38:18.813Z,12.39
2019-05-06T15:40:45.605Z,12.10
2019-05-06T15:43:12.787Z,12.40
2019-05-06T15:45:39.532Z,12.60
2019-05-06T15:48:07.207Z,12.26
2019-05-06T15:50:33.861Z,12.18
2019-05-06T15:53:01.954Z,11.85
2019-05-06T15:55:28.746Z,12.03
2019-05-06T15:57:55.411Z,12.11
2019-05-06T16:00:23.067Z,12.05
2019-05-06T16:02:49.831Z,11.97
2019-05-06T16:05:19.867Z,12.07
2019-05-06T16:07:46.847Z,12.02
2019-05-06T16:10:15.123Z,11.98
2019-05-06T16:12:45.877Z,11.91
2019-05-06T16:15:12.995Z,11.91
2019-05-06T16:17:42.439Z,12.05
2019-05-06T16:20:08.519Z,12.13
2019-05-06T16:22:35.633Z,12.06
2019-05-06T16:25:08.210Z,11.84
2019-05-06T16:27:34.971Z,11.59
2019-05-06T16:30:04.292Z,11.76
2019-05-06T16:32:33.249Z,11.88
2019-05-06T16:34:59.541Z,11.85
2019-05-06T16:37:26.194Z,11.80
2019-05-06T16:39:54.671Z,11.77
2019-05-06T16:42:22.406Z,11.79
2019-05-06T16:44:49.318Z,11.77
2019-05-06T16:47:35.183Z,11.67
2019-05-06T16:50:02.080Z,11.90
2019-05-06T16:52:28.683Z,11.63
2019-05-06T16:54:57.989Z,11.51
2019-05-06T16:57:24.787Z,11.61
2019-05-06T16:59:52.257Z,11.48
2019-05-06T17:02:26.486Z,11.49
2019-05-06T17:05:17.260Z,11.63
2019-05-06T17:07:45.056Z,11.38
2019-05-06T17:10:12.071Z,11.49
2019-05-06T17:12:39.119Z,11.66
2019-05-06T17:15:05.927Z,11.31
2019-05-06T17:17:40.824Z,11.29
2019-05-06T17:20:03.133Z,11.29
2019-05-06T17:22:32.178Z,11.25
2019-05-06T17:24:58.739Z,11.03
2019-05-06T17:27:25.408Z,11.12
2019-05-06T17:30:19.565Z,11.09
2019-05-06T17:32:52.574Z,11.16
2019-05-06T17:35:19.498Z,11.00
2019-05-06T17:38:22.416Z,10.49
2019-05-06T17:40:49.289Z,10.57
2019-05-06T17:43:16.027Z,10.23
2019-05-06T17:45:58.496Z,9.92
2019-05-06T17:48:33.095Z,9.66
2019-05-06T17:51:33.836Z,9.75
2019-05-06T17:54:03.703Z,9.89
2019-05-06T17:56:30.470Z,9.62
2019-05-06T17:58:57.154Z,9.36
2019-05-06T18:01:32.412Z,9.49
2019-05-06T18:03:58.783Z,9.36
2019-05-06T18:06:25.741Z,9.23
2019-05-06T18:08:52.910Z,9.20
2019-05-06T18:11:19.721Z,9.26
2019-05-06T18:13:47.077Z,8.91
2019-05-06T18:16:14.046Z,8.86
2019-05-06T18:18:41.021Z,8.39
2019-05-06T18:21:07.575Z,8.04
2019-05-06T18:23:34.268Z,8.09
2019-05-06T18:26:03.183Z,7.89
2019-05-06T18:28:32.256Z,7.91
2019-05-06T18:30:59.150Z,7.95
2019-05-06T18:33:26.106Z,7.95
2019-05-06T18:35:53.597Z,7.98
2019-05-06T18:38:21.814Z,8.07
2019-05-06T18:40:48.715Z,8.08
2019-05-06T18:43:15.272Z,8.02
2019-05-06T18:45:42.056Z,8.01
2019-05-06T18:48:08.613Z,8.01
2019-05-06T18:50:35.407Z,7.91
2019-05-06T18:53:02.508Z,7.93
2019-05-06T18:55:29.452Z,7.99
2019-05-06T18:57:56.393Z,8.00
2019-05-06T19:00:23.185Z,7.95
2019-05-06T19:02:52.064Z,7.98
2019-05-06T19:05:26.778Z,8.03
2019-05-06T19:07:52.751Z,8.08
2019-05-06T19:10:23.676Z,7.94
2019-05-06T19:12:52.391Z,7.81
2019-05-06T19:15:22.083Z,7.71
2019-05-06T19:17:48.978Z,7.62
2019-05-06T19:20:15.758Z,7.41
2019-05-06T19:22:43.449Z,7.33
2019-05-06T19:25:14.343Z,7.34
2019-05-06T19:27:39.197Z,7.30
2019-05-06T19:30:06.966Z,7.31
2019-05-06T19:32:35.266Z,7.29
2019-05-06T19:35:02.836Z,7.29
2019-05-06T19:37:32.302Z,7.30
2019-05-06T19:39:58.720Z,7.29
2019-05-06T19:42:25.301Z,7.50
2019-05-06T19:44:52.826Z,7.56
2019-05-06T19:47:19.905Z,7.61
2019-05-06T19:49:46.675Z,7.73
2019-05-06T19:52:13.473Z,7.70
2019-05-06T19:54:42.348Z,7.75
2019-05-06T19:57:08.834Z,7.89
2019-05-06T19:59:35.487Z,7.75
2019-05-06T20:02:02.308Z,7.87
2019-05-06T20:04:29.075Z,7.82
2019-05-06T20:07:04.564Z,7.84
2019-05-06T20:09:49.631Z,7.81
2019-05-06T20:12:23.484Z,7.68
2019-05-06T20:14:52.480Z,7.62
2019-05-06T20:17:19.074Z,7.59
2019-05-06T20:19:45.786Z,7.62
2019-05-06T20:22:13.070Z,7.62
2019-05-06T20:24:42.482Z,7.52
2019-05-06T20:27:09.632Z,7.48
2019-05-06T20:29:38.462Z,7.45
2019-05-06T20:32:05.862Z,7.65
2019-05-06T20:34:32.633Z,7.64
2019-05-06T20:36:59.458Z,7.57
2019-05-06T20:39:26.271Z,7.54
2019-05-06T20:41:52.982Z,7.62
2019-05-06T20:44:26.871Z,7.63
2019-05-06T20:46:54.779Z,7.49
2019-05-06T20:49:21.743Z,7.49
2019-05-06T20:51:48.444Z,7.42
2019-05-06T20:54:15.323Z,7.34
2019-05-06T20:56:42.259Z,7.44
2019-05-06T20:59:09.089Z,7.38
2019-05-06T21:01:35.683Z,7.34
2019-05-06T21:04:02.476Z,7.29
2019-05-06T21:06:29.300Z,7.12
2019-05-06T21:08:56.298Z,7.12
2019-05-06T21:11:28.822Z,6.99
2019-05-06T21:13:51.730Z,7.12
2019-05-06T21:16:18.511Z,7.09
2019-05-06T21:18:45.676Z,7.07
2019-05-06T21:21:13.599Z,7.14
2019-05-06T21:23:42.679Z,7.20
2019-05-06T21:26:09.419Z,7.21
2019-05-06T21:28:35.987Z,7.29
2019-05-06T21:31:03.242Z,7.43
2019-05-06T21:33:32.919Z,7.42
2019-05-06T21:35:59.751Z,7.48
2019-05-06T21:38:26.351Z,7.59
2019-05-06T21:40:53.005Z,7.57
2019-05-06T21:43:19.896Z,7.44
2019-05-06T21:45:46.565Z,7.25
2019-05-06T21:48:15.645Z,7.15
2019-05-06T21:50:42.757Z,7.21
2019-05-06T21:53:12.226Z,7.28
2019-05-06T21:55:38.233Z,7.44
2019-05-06T21:58:04.998Z,7.38
2019-05-06T22:00:49.657Z,7.34
2019-05-06T22:03:16.380Z,7.24
2019-05-06T22:05:43.182Z,7.34
2019-05-06T22:08:10.000Z,7.39
2019-05-06T22:10:36.702Z,7.23
2019-05-06T22:13:03.484Z,7.08
2019-05-06T22:15:32.259Z,7.10
2019-05-06T22:17:58.865Z,7.29
2019-05-06T22:20:26.059Z,7.41
2019-05-06T22:22:53.078Z,7.29
2019-05-06T22:25:21.982Z,7.32
2019-05-06T22:27:48.716Z,7.29
2019-05-06T22:30:15.836Z,7.26
2019-05-06T22:32:45.287Z,7.24
2019-05-06T22:35:12.621Z,6.88
2019-05-06T22:37:39.256Z,7.14
2019-05-06T22:40:07.985Z,6.99
2019-05-06T22:42:34.789Z,6.93
2019-05-06T22:45:23.030Z,6.80
2019-05-06T22:47:49.812Z,6.81
2019-05-06T22:50:16.644Z,6.93
2019-05-06T22:52:43.428Z,7.00
2019-05-06T22:55:12.773Z,6.97
2019-05-06T22:57:39.079Z,6.64
2019-05-06T23:00:08.646Z,6.86
2019-05-06T23:02:44.279Z,6.87
2019-05-06T23:05:12.180Z,6.86
2019-05-06T23:07:39.054Z,6.86
2019-05-06T23:10:06.775Z,6.89
2019-05-06T23:12:33.568Z,6.83
2019-05-06T23:15:02.672Z,6.79
2019-05-06T23:17:29.236Z,6.71
2019-05-06T23:19:55.802Z,6.53
2019-05-06T23:22:22.826Z,6.52
2019-05-06T23:24:49.682Z,6.45
2019-05-06T23:27:16.277Z,6.55
2019-05-06T23:29:44.988Z,6.55
2019-05-06T23:32:13.796Z,6.57
2019-05-06T23:34:40.354Z,6.57
2019-05-06T23:37:26.660Z,6.60
2019-05-06T23:43:43.030Z,6.65
2019-05-06T23:46:46.438Z,6.65
2019-05-06T23:49:50.021Z,6.52
2019-05-06T23:52:53.084Z,6.47
2019-05-06T23:55:56.419Z,6.49
2019-05-06T23:58:22.554Z,6.56
